sensor_id;sensor_type;location;lat;lon;timestamp;P1;durP1;ratioP1;P2;durP2;ratioP2
30707;SDS011;17458;48.958;8.284;2022-12-16T00:01:39;35.17;;;19.37;;
30707;SDS011;17458;48.958;8.284;2022-12-16T00:04:23;36.63;;;21.77;;
30707;SDS011;17458;48.958;8.284;2022-12-16T00:07:07;36.77;;;21.80;;
30707;SDS011;17458;48.958;8.284;2022-12-16T00:09:51;35.97;;;21.90;;
30707;SDS011;17458;48.958;8.284;2022-12-16T00:12:35;32.23;;;20.73;;
30707;SDS011;17458;48.958;8.284;2022-12-16T00:15:19;36.53;;;21.53;;
30707;SDS011;17458;48.958;8.284;2022-12-16T00:18:03;34.87;;;19.67;;
30707;SDS011;17458;48.958;8.284;2022-12-16T00:20:48;33.63;;;21.60;;
30707;SDS011;17458;48.958;8.284;2022-12-16T00:23:35;37.77;;;22.00;;
30707;SDS011;17458;48.958;8.284;2022-12-16T00:26:21;35.27;;;20.40;;
30707;SDS011;17458;48.958;8.284;2022-12-16T00:29:06;32.30;;;20.73;;
30707;SDS011;17458;48.958;8.284;2022-12-16T00:31:50;34.87;;;20.73;;
30707;SDS011;17458;48.958;8.284;2022-12-16T00:34:34;31.33;;;19.30;;
30707;SDS011;17458;48.958;8.284;2022-12-16T00:37:18;35.37;;;20.73;;
30707;SDS011;17458;48.958;8.284;2022-12-16T00:40:01;32.50;;;18.17;;
30707;SDS011;17458;48.958;8.284;2022-12-16T00:42:46;33.87;;;20.47;;
30707;SDS011;17458;48.958;8.284;2022-12-16T00:45:30;34.23;;;20.63;;
30707;SDS011;17458;48.958;8.284;2022-12-16T00:48:14;33.10;;;21.00;;
30707;SDS011;17458;48.958;8.284;2022-12-16T00:50:58;39.20;;;24.57;;
30707;SDS011;17458;48.958;8.284;2022-12-16T00:53:42;35.37;;;18.90;;
30707;SDS011;17458;48.958;8.284;2022-12-16T00:56:26;32.73;;;20.23;;
30707;SDS011;17458;48.958;8.284;2022-12-16T00:59:10;35.07;;;19.70;;
30707;SDS011;17458;48.958;8.284;2022-12-16T01:01:54;57.43;;;29.60;;
30707;SDS011;17458;48.958;8.284;2022-12-16T01:04:38;48.17;;;25.70;;
30707;SDS011;17458;48.958;8.284;2022-12-16T01:07:22;69.20;;;40.07;;
30707;SDS011;17458;48.958;8.284;2022-12-16T01:10:06;52.97;;;27.17;;
30707;SDS011;17458;48.958;8.284;2022-12-16T01:12:52;34.13;;;20.87;;
30707;SDS011;17458;48.958;8.284;2022-12-16T01:15:36;34.23;;;18.13;;
30707;SDS011;17458;48.958;8.284;2022-12-16T01:18:20;40.03;;;23.07;;
30707;SDS011;17458;48.958;8.284;2022-12-16T01:21:05;44.73;;;25.27;;
30707;SDS011;17458;48.958;8.284;2022-12-16T01:23:50;39.43;;;24.17;;
30707;SDS011;17458;48.958;8.284;2022-12-16T01:26:34;42.80;;;23.27;;
30707;SDS011;17458;48.958;8.284;2022-12-16T01:29:21;34.60;;;19.73;;
30707;SDS011;17458;48.958;8.284;2022-12-16T01:32:05;49.47;;;26.77;;
30707;SDS011;17458;48.958;8.284;2022-12-16T01:34:49;32.93;;;20.20;;
30707;SDS011;17458;48.958;8.284;2022-12-16T01:37:34;32.37;;;20.40;;
30707;SDS011;17458;48.958;8.284;2022-12-16T01:40:21;36.13;;;21.77;;
30707;SDS011;17458;48.958;8.284;2022-12-16T01:43:10;42.70;;;22.80;;
30707;SDS011;17458;48.958;8.284;2022-12-16T01:46:02;30.00;;;18.20;;
30707;SDS011;17458;48.958;8.284;2022-12-16T01:48:58;33.17;;;18.57;;
30707;SDS011;17458;48.958;8.284;2022-12-16T01:51:44;40.60;;;23.37;;
30707;SDS011;17458;48.958;8.284;2022-12-16T01:54:34;28.70;;;17.30;;
30707;SDS011;17458;48.958;8.284;2022-12-16T01:57:23;31.27;;;18.27;;
30707;SDS011;17458;48.958;8.284;2022-12-16T02:00:10;31.57;;;19.50;;
30707;SDS011;17458;48.958;8.284;2022-12-16T02:02:58;29.27;;;18.03;;
30707;SDS011;17458;48.958;8.284;2022-12-16T02:05:43;41.10;;;23.83;;
30707;SDS011;17458;48.958;8.284;2022-12-16T02:08:29;44.20;;;23.53;;
30707;SDS011;17458;48.958;8.284;2022-12-16T02:11:20;32.83;;;20.00;;
30707;SDS011;17458;48.958;8.284;2022-12-16T02:17:32;45.87;;;23.13;;
30707;SDS011;17458;48.958;8.284;2022-12-16T02:32:58;45.20;;;18.13;;
30707;SDS011;17458;48.958;8.284;2022-12-16T02:35:54;31.00;;;17.07;;
30707;SDS011;17458;48.958;8.284;2022-12-16T02:38:47;44.90;;;19.83;;
30707;SDS011;17458;48.958;8.284;2022-12-16T02:44:47;75.67;;;31.60;;
30707;SDS011;17458;48.958;8.284;2022-12-16T02:47:40;59.97;;;26.57;;
30707;SDS011;17458;48.958;8.284;2022-12-16T02:50:35;96.67;;;35.53;;
30707;SDS011;17458;48.958;8.284;2022-12-16T02:53:23;29.13;;;17.27;;
30707;SDS011;17458;48.958;8.284;2022-12-16T02:56:20;79.03;;;30.83;;
30707;SDS011;17458;48.958;8.284;2022-12-16T02:59:13;34.63;;;17.27;;
30707;SDS011;17458;48.958;8.284;2022-12-16T03:02:15;31.30;;;18.10;;
30707;SDS011;17458;48.958;8.284;2022-12-16T03:05:08;41.77;;;20.40;;
30707;SDS011;17458;48.958;8.284;2022-12-16T03:07:59;27.60;;;15.27;;
30707;SDS011;17458;48.958;8.284;2022-12-16T03:10:51;30.70;;;16.53;;
30707;SDS011;17458;48.958;8.284;2022-12-16T03:13:44;22.83;;;13.13;;
30707;SDS011;17458;48.958;8.284;2022-12-16T03:16:31;26.23;;;15.67;;
30707;SDS011;17458;48.958;8.284;2022-12-16T03:19:17;24.20;;;14.17;;
30707;SDS011;17458;48.958;8.284;2022-12-16T03:22:06;24.93;;;16.97;;
30707;SDS011;17458;48.958;8.284;2022-12-16T03:24:51;25.67;;;15.83;;
30707;SDS011;17458;48.958;8.284;2022-12-16T03:27:40;20.80;;;15.67;;
30707;SDS011;17458;48.958;8.284;2022-12-16T03:30:31;24.47;;;14.67;;
30707;SDS011;17458;48.958;8.284;2022-12-16T03:33:24;25.60;;;14.33;;
30707;SDS011;17458;48.958;8.284;2022-12-16T03:36:15;26.40;;;16.50;;
30707;SDS011;17458;48.958;8.284;2022-12-16T03:39:04;23.67;;;13.93;;
30707;SDS011;17458;48.958;8.284;2022-12-16T03:41:50;25.00;;;14.40;;
30707;SDS011;17458;48.958;8.284;2022-12-16T03:44:39;23.57;;;13.90;;
30707;SDS011;17458;48.958;8.284;2022-12-16T03:47:26;24.07;;;14.27;;
30707;SDS011;17458;48.958;8.284;2022-12-16T03:50:11;26.77;;;15.33;;
30707;SDS011;17458;48.958;8.284;2022-12-16T03:52:55;32.23;;;17.33;;
30707;SDS011;17458;48.958;8.284;2022-12-16T03:55:39;26.53;;;14.50;;
30707;SDS011;17458;48.958;8.284;2022-12-16T03:58:23;30.67;;;17.53;;
30707;SDS011;17458;48.958;8.284;2022-12-16T04:01:08;29.77;;;17.40;;
30707;SDS011;17458;48.958;8.284;2022-12-16T04:03:53;29.40;;;16.10;;
30707;SDS011;17458;48.958;8.284;2022-12-16T04:06:36;23.27;;;13.73;;
30707;SDS011;17458;48.958;8.284;2022-12-16T04:09:20;24.30;;;15.73;;
30707;SDS011;17458;48.958;8.284;2022-12-16T04:12:04;22.67;;;14.37;;
30707;SDS011;17458;48.958;8.284;2022-12-16T04:15:08;24.53;;;14.53;;
30707;SDS011;17458;48.958;8.284;2022-12-16T04:18:12;20.67;;;13.17;;
30707;SDS011;17458;48.958;8.284;2022-12-16T04:21:17;30.77;;;15.53;;
30707;SDS011;17458;48.958;8.284;2022-12-16T04:24:20;23.33;;;14.60;;
30707;SDS011;17458;48.958;8.284;2022-12-16T04:27:09;20.50;;;13.57;;
30707;SDS011;17458;48.958;8.284;2022-12-16T04:30:08;23.97;;;15.30;;
30707;SDS011;17458;48.958;8.284;2022-12-16T04:33:03;24.10;;;15.03;;
30707;SDS011;17458;48.958;8.284;2022-12-16T04:36:09;21.40;;;13.37;;
30707;SDS011;17458;48.958;8.284;2022-12-16T04:39:23;27.13;;;15.33;;
30707;SDS011;17458;48.958;8.284;2022-12-16T04:42:25;24.90;;;14.37;;
30707;SDS011;17458;48.958;8.284;2022-12-16T04:45:29;27.40;;;15.77;;
30707;SDS011;17458;48.958;8.284;2022-12-16T04:48:32;28.17;;;14.03;;
30707;SDS011;17458;48.958;8.284;2022-12-16T04:51:45;27.13;;;15.03;;
30707;SDS011;17458;48.958;8.284;2022-12-16T04:54:47;30.30;;;14.50;;
30707;SDS011;17458;48.958;8.284;2022-12-16T04:57:54;30.90;;;15.57;;
30707;SDS011;17458;48.958;8.284;2022-12-16T05:00:58;21.13;;;13.27;;
30707;SDS011;17458;48.958;8.284;2022-12-16T05:04:01;20.47;;;13.50;;
30707;SDS011;17458;48.958;8.284;2022-12-16T05:07:04;23.23;;;13.97;;
30707;SDS011;17458;48.958;8.284;2022-12-16T05:10:07;25.07;;;14.13;;
30707;SDS011;17458;48.958;8.284;2022-12-16T05:13:10;26.13;;;15.23;;
30707;SDS011;17458;48.958;8.284;2022-12-16T05:16:13;24.13;;;13.53;;
30707;SDS011;17458;48.958;8.284;2022-12-16T05:19:15;20.53;;;14.80;;
30707;SDS011;17458;48.958;8.284;2022-12-16T05:22:18;23.77;;;14.27;;
30707;SDS011;17458;48.958;8.284;2022-12-16T05:25:21;24.13;;;15.40;;
30707;SDS011;17458;48.958;8.284;2022-12-16T05:28:24;23.13;;;15.07;;
30707;SDS011;17458;48.958;8.284;2022-12-16T05:31:27;19.90;;;12.50;;
30707;SDS011;17458;48.958;8.284;2022-12-16T05:34:30;27.73;;;15.30;;
30707;SDS011;17458;48.958;8.284;2022-12-16T05:37:33;25.27;;;15.40;;
30707;SDS011;17458;48.958;8.284;2022-12-16T05:40:36;20.47;;;13.20;;
30707;SDS011;17458;48.958;8.284;2022-12-16T05:43:39;23.33;;;14.40;;
30707;SDS011;17458;48.958;8.284;2022-12-16T05:46:41;27.70;;;16.50;;
30707;SDS011;17458;48.958;8.284;2022-12-16T05:49:44;22.90;;;14.43;;
30707;SDS011;17458;48.958;8.284;2022-12-16T05:52:51;24.50;;;14.47;;
30707;SDS011;17458;48.958;8.284;2022-12-16T05:55:55;23.33;;;14.70;;
30707;SDS011;17458;48.958;8.284;2022-12-16T05:59:11;22.43;;;13.57;;
30707;SDS011;17458;48.958;8.284;2022-12-16T06:02:14;27.47;;;16.83;;
30707;SDS011;17458;48.958;8.284;2022-12-16T06:05:17;21.60;;;14.17;;
30707;SDS011;17458;48.958;8.284;2022-12-16T06:08:20;22.33;;;13.77;;
30707;SDS011;17458;48.958;8.284;2022-12-16T06:11:23;26.27;;;16.00;;
30707;SDS011;17458;48.958;8.284;2022-12-16T06:14:26;21.57;;;13.70;;
30707;SDS011;17458;48.958;8.284;2022-12-16T06:17:28;25.23;;;14.90;;
30707;SDS011;17458;48.958;8.284;2022-12-16T06:20:34;21.93;;;13.87;;
30707;SDS011;17458;48.958;8.284;2022-12-16T06:23:38;22.13;;;12.83;;
30707;SDS011;17458;48.958;8.284;2022-12-16T06:26:41;26.43;;;14.33;;
30707;SDS011;17458;48.958;8.284;2022-12-16T06:29:44;22.07;;;13.90;;
30707;SDS011;17458;48.958;8.284;2022-12-16T06:32:49;27.27;;;15.50;;
30707;SDS011;17458;48.958;8.284;2022-12-16T06:35:52;20.93;;;14.10;;
30707;SDS011;17458;48.958;8.284;2022-12-16T06:38:55;18.97;;;13.47;;
30707;SDS011;17458;48.958;8.284;2022-12-16T06:41:58;21.20;;;13.23;;
30707;SDS011;17458;48.958;8.284;2022-12-16T06:45:01;23.73;;;15.67;;
30707;SDS011;17458;48.958;8.284;2022-12-16T06:48:04;21.97;;;14.93;;
30707;SDS011;17458;48.958;8.284;2022-12-16T06:51:07;24.10;;;14.37;;
30707;SDS011;17458;48.958;8.284;2022-12-16T06:54:10;20.53;;;14.37;;
30707;SDS011;17458;48.958;8.284;2022-12-16T06:57:13;26.30;;;13.87;;
30707;SDS011;17458;48.958;8.284;2022-12-16T07:00:16;20.80;;;12.63;;
30707;SDS011;17458;48.958;8.284;2022-12-16T07:03:19;27.50;;;15.23;;
30707;SDS011;17458;48.958;8.284;2022-12-16T07:06:22;25.30;;;14.77;;
30707;SDS011;17458;48.958;8.284;2022-12-16T07:09:25;20.03;;;13.30;;
30707;SDS011;17458;48.958;8.284;2022-12-16T07:12:27;22.07;;;13.80;;
30707;SDS011;17458;48.958;8.284;2022-12-16T07:15:30;21.50;;;14.80;;
30707;SDS011;17458;48.958;8.284;2022-12-16T07:18:33;27.87;;;17.13;;
30707;SDS011;17458;48.958;8.284;2022-12-16T07:21:36;26.40;;;16.93;;
30707;SDS011;17458;48.958;8.284;2022-12-16T07:24:39;28.37;;;15.90;;
30707;SDS011;17458;48.958;8.284;2022-12-16T07:27:45;31.07;;;18.03;;
30707;SDS011;17458;48.958;8.284;2022-12-16T07:30:49;32.07;;;18.63;;
30707;SDS011;17458;48.958;8.284;2022-12-16T07:33:52;32.70;;;17.60;;
30707;SDS011;17458;48.958;8.284;2022-12-16T07:36:55;33.10;;;18.37;;
30707;SDS011;17458;48.958;8.284;2022-12-16T07:39:57;30.97;;;18.40;;
30707;SDS011;17458;48.958;8.284;2022-12-16T07:43:00;30.97;;;17.50;;
30707;SDS011;17458;48.958;8.284;2022-12-16T07:46:03;34.57;;;17.23;;
30707;SDS011;17458;48.958;8.284;2022-12-16T07:49:06;30.47;;;18.70;;
30707;SDS011;17458;48.958;8.284;2022-12-16T07:52:09;25.33;;;17.53;;
30707;SDS011;17458;48.958;8.284;2022-12-16T07:55:12;37.77;;;18.80;;
30707;SDS011;17458;48.958;8.284;2022-12-16T07:58:14;31.47;;;20.10;;
30707;SDS011;17458;48.958;8.284;2022-12-16T08:01:17;29.53;;;17.83;;
30707;SDS011;17458;48.958;8.284;2022-12-16T08:04:20;32.10;;;17.63;;
30707;SDS011;17458;48.958;8.284;2022-12-16T08:07:23;28.73;;;17.07;;
30707;SDS011;17458;48.958;8.284;2022-12-16T08:10:26;33.53;;;19.07;;
30707;SDS011;17458;48.958;8.284;2022-12-16T08:13:29;25.93;;;19.20;;
30707;SDS011;17458;48.958;8.284;2022-12-16T08:16:32;31.70;;;17.60;;
30707;SDS011;17458;48.958;8.284;2022-12-16T08:19:34;24.97;;;17.60;;
30707;SDS011;17458;48.958;8.284;2022-12-16T08:22:38;33.30;;;17.70;;
30707;SDS011;17458;48.958;8.284;2022-12-16T08:25:41;35.60;;;19.63;;
30707;SDS011;17458;48.958;8.284;2022-12-16T08:28:44;32.63;;;17.93;;
30707;SDS011;17458;48.958;8.284;2022-12-16T08:31:46;37.40;;;20.07;;
30707;SDS011;17458;48.958;8.284;2022-12-16T08:34:49;37.63;;;22.53;;
30707;SDS011;17458;48.958;8.284;2022-12-16T08:37:55;37.03;;;22.23;;
30707;SDS011;17458;48.958;8.284;2022-12-16T08:40:58;36.30;;;20.17;;
30707;SDS011;17458;48.958;8.284;2022-12-16T08:44:01;34.63;;;20.27;;
30707;SDS011;17458;48.958;8.284;2022-12-16T08:47:04;36.43;;;20.57;;
30707;SDS011;17458;48.958;8.284;2022-12-16T08:50:07;35.37;;;20.73;;
30707;SDS011;17458;48.958;8.284;2022-12-16T08:53:12;36.93;;;19.27;;
30707;SDS011;17458;48.958;8.284;2022-12-16T08:56:15;30.13;;;18.17;;
30707;SDS011;17458;48.958;8.284;2022-12-16T08:59:18;29.03;;;18.20;;
30707;SDS011;17458;48.958;8.284;2022-12-16T09:02:21;26.10;;;18.30;;
30707;SDS011;17458;48.958;8.284;2022-12-16T09:05:24;24.67;;;15.17;;
30707;SDS011;17458;48.958;8.284;2022-12-16T09:08:27;21.90;;;14.30;;
30707;SDS011;17458;48.958;8.284;2022-12-16T09:11:35;27.77;;;16.23;;
30707;SDS011;17458;48.958;8.284;2022-12-16T09:14:38;27.17;;;15.97;;
30707;SDS011;17458;48.958;8.284;2022-12-16T09:17:41;30.00;;;16.67;;
30707;SDS011;17458;48.958;8.284;2022-12-16T09:20:57;24.40;;;16.30;;
30707;SDS011;17458;48.958;8.284;2022-12-16T09:24:00;22.97;;;15.60;;
30707;SDS011;17458;48.958;8.284;2022-12-16T09:27:16;26.43;;;14.23;;
30707;SDS011;17458;48.958;8.284;2022-12-16T09:30:19;21.00;;;14.67;;
30707;SDS011;17458;48.958;8.284;2022-12-16T09:33:21;24.47;;;14.07;;
30707;SDS011;17458;48.958;8.284;2022-12-16T09:36:24;24.20;;;14.63;;
30707;SDS011;17458;48.958;8.284;2022-12-16T09:39:27;26.17;;;14.13;;
30707;SDS011;17458;48.958;8.284;2022-12-16T09:46:05;24.77;;;13.93;;
30707;SDS011;17458;48.958;8.284;2022-12-16T09:49:32;24.53;;;14.70;;
30707;SDS011;17458;48.958;8.284;2022-12-16T09:52:57;16.87;;;13.10;;
30707;SDS011;17458;48.958;8.284;2022-12-16T09:56:15;25.07;;;15.20;;
30707;SDS011;17458;48.958;8.284;2022-12-16T09:59:25;20.50;;;13.13;;
30707;SDS011;17458;48.958;8.284;2022-12-16T10:02:32;20.97;;;14.80;;
30707;SDS011;17458;48.958;8.284;2022-12-16T10:05:38;23.80;;;13.03;;
30707;SDS011;17458;48.958;8.284;2022-12-16T10:08:53;17.77;;;12.37;;
30707;SDS011;17458;48.958;8.284;2022-12-16T10:15:24;21.00;;;14.13;;
30707;SDS011;17458;48.958;8.284;2022-12-16T10:21:44;23.20;;;14.53;;
30707;SDS011;17458;48.958;8.284;2022-12-16T10:24:59;20.43;;;12.87;;
30707;SDS011;17458;48.958;8.284;2022-12-16T10:28:17;19.77;;;13.13;;
30707;SDS011;17458;48.958;8.284;2022-12-16T10:31:26;24.73;;;14.40;;
30707;SDS011;17458;48.958;8.284;2022-12-16T10:34:29;19.47;;;14.00;;
30707;SDS011;17458;48.958;8.284;2022-12-16T10:37:37;18.43;;;13.00;;
30707;SDS011;17458;48.958;8.284;2022-12-16T10:40:41;19.97;;;12.80;;
30707;SDS011;17458;48.958;8.284;2022-12-16T10:43:45;19.60;;;13.73;;
30707;SDS011;17458;48.958;8.284;2022-12-16T10:46:49;22.03;;;11.60;;
30707;SDS011;17458;48.958;8.284;2022-12-16T10:49:55;24.50;;;13.73;;
30707;SDS011;17458;48.958;8.284;2022-12-16T10:53:02;22.03;;;13.20;;
30707;SDS011;17458;48.958;8.284;2022-12-16T10:56:22;21.10;;;13.13;;
30707;SDS011;17458;48.958;8.284;2022-12-16T10:59:37;19.97;;;12.33;;
30707;SDS011;17458;48.958;8.284;2022-12-16T11:02:42;18.67;;;11.30;;
30707;SDS011;17458;48.958;8.284;2022-12-16T11:05:45;21.07;;;12.17;;
30707;SDS011;17458;48.958;8.284;2022-12-16T11:08:47;23.93;;;13.03;;
30707;SDS011;17458;48.958;8.284;2022-12-16T11:11:50;17.13;;;11.70;;
30707;SDS011;17458;48.958;8.284;2022-12-16T11:15:27;20.77;;;12.63;;
30707;SDS011;17458;48.958;8.284;2022-12-16T11:18:31;24.23;;;12.97;;
30707;SDS011;17458;48.958;8.284;2022-12-16T11:21:34;28.97;;;13.43;;
30707;SDS011;17458;48.958;8.284;2022-12-16T11:24:37;22.20;;;14.37;;
30707;SDS011;17458;48.958;8.284;2022-12-16T11:27:40;41.70;;;22.07;;
30707;SDS011;17458;48.958;8.284;2022-12-16T11:30:43;22.20;;;13.47;;
30707;SDS011;17458;48.958;8.284;2022-12-16T11:33:55;28.03;;;13.77;;
30707;SDS011;17458;48.958;8.284;2022-12-16T11:37:01;25.90;;;13.73;;
30707;SDS011;17458;48.958;8.284;2022-12-16T11:40:03;17.70;;;12.37;;
30707;SDS011;17458;48.958;8.284;2022-12-16T11:43:07;20.87;;;12.83;;
30707;SDS011;17458;48.958;8.284;2022-12-16T11:46:17;20.60;;;12.90;;
30707;SDS011;17458;48.958;8.284;2022-12-16T11:49:46;20.03;;;12.13;;
30707;SDS011;17458;48.958;8.284;2022-12-16T11:52:50;17.23;;;11.93;;
30707;SDS011;17458;48.958;8.284;2022-12-16T11:55:57;20.40;;;12.93;;
30707;SDS011;17458;48.958;8.284;2022-12-16T11:59:02;19.37;;;12.20;;
30707;SDS011;17458;48.958;8.284;2022-12-16T12:02:28;22.07;;;11.50;;
30707;SDS011;17458;48.958;8.284;2022-12-16T12:05:37;21.23;;;11.17;;
30707;SDS011;17458;48.958;8.284;2022-12-16T12:09:08;17.10;;;11.37;;
30707;SDS011;17458;48.958;8.284;2022-12-16T12:18:40;21.50;;;13.47;;
30707;SDS011;17458;48.958;8.284;2022-12-16T12:22:10;15.90;;;10.80;;
30707;SDS011;17458;48.958;8.284;2022-12-16T12:55:32;22.80;;;13.13;;
30707;SDS011;17458;48.958;8.284;2022-12-16T12:58:43;20.17;;;12.83;;
30707;SDS011;17458;48.958;8.284;2022-12-16T13:01:47;22.13;;;12.73;;
30707;SDS011;17458;48.958;8.284;2022-12-16T13:04:54;19.73;;;12.73;;
30707;SDS011;17458;48.958;8.284;2022-12-16T13:15:17;17.43;;;12.50;;
30707;SDS011;17458;48.958;8.284;2022-12-16T13:18:37;18.63;;;12.77;;
30707;SDS011;17458;48.958;8.284;2022-12-16T13:24:45;22.93;;;15.40;;
30707;SDS011;17458;48.958;8.284;2022-12-16T13:27:53;27.00;;;19.27;;
30707;SDS011;17458;48.958;8.284;2022-12-16T13:30:59;20.60;;;12.87;;
30707;SDS011;17458;48.958;8.284;2022-12-16T13:34:27;17.07;;;11.17;;
30707;SDS011;17458;48.958;8.284;2022-12-16T13:37:30;18.37;;;11.07;;
30707;SDS011;17458;48.958;8.284;2022-12-16T13:40:40;18.20;;;10.67;;
30707;SDS011;17458;48.958;8.284;2022-12-16T13:46:56;12.00;;;9.37;;
30707;SDS011;17458;48.958;8.284;2022-12-16T13:49:59;13.70;;;10.17;;
30707;SDS011;17458;48.958;8.284;2022-12-16T13:53:48;16.37;;;10.17;;
30707;SDS011;17458;48.958;8.284;2022-12-16T13:56:53;19.37;;;12.23;;
30707;SDS011;17458;48.958;8.284;2022-12-16T14:00:16;15.93;;;10.77;;
30707;SDS011;17458;48.958;8.284;2022-12-16T14:03:24;16.80;;;11.33;;
30707;SDS011;17458;48.958;8.284;2022-12-16T14:06:40;22.13;;;9.87;;
30707;SDS011;17458;48.958;8.284;2022-12-16T14:09:43;35.73;;;23.43;;
30707;SDS011;17458;48.958;8.284;2022-12-16T14:22:42;15.10;;;9.93;;
30707;SDS011;17458;48.958;8.284;2022-12-16T14:26:13;20.40;;;11.63;;
30707;SDS011;17458;48.958;8.284;2022-12-16T14:29:22;15.30;;;10.67;;
30707;SDS011;17458;48.958;8.284;2022-12-16T14:32:29;13.43;;;9.47;;
30707;SDS011;17458;48.958;8.284;2022-12-16T14:35:36;16.43;;;9.37;;
30707;SDS011;17458;48.958;8.284;2022-12-16T14:38:50;17.20;;;11.67;;
30707;SDS011;17458;48.958;8.284;2022-12-16T14:41:53;20.97;;;10.00;;
30707;SDS011;17458;48.958;8.284;2022-12-16T14:44:56;20.63;;;12.50;;
30707;SDS011;17458;48.958;8.284;2022-12-16T14:47:59;19.97;;;12.43;;
30707;SDS011;17458;48.958;8.284;2022-12-16T14:51:14;16.53;;;10.43;;
30707;SDS011;17458;48.958;8.284;2022-12-16T14:54:38;19.60;;;10.97;;
30707;SDS011;17458;48.958;8.284;2022-12-16T14:57:43;16.10;;;9.60;;
30707;SDS011;17458;48.958;8.284;2022-12-16T15:00:47;22.27;;;13.03;;
30707;SDS011;17458;48.958;8.284;2022-12-16T15:03:51;15.53;;;9.77;;
30707;SDS011;17458;48.958;8.284;2022-12-16T15:06:54;14.30;;;10.20;;
30707;SDS011;17458;48.958;8.284;2022-12-16T15:09:59;16.13;;;10.43;;
30707;SDS011;17458;48.958;8.284;2022-12-16T15:13:03;17.77;;;10.50;;
30707;SDS011;17458;48.958;8.284;2022-12-16T15:16:06;17.23;;;10.53;;
30707;SDS011;17458;48.958;8.284;2022-12-16T15:19:17;18.70;;;11.07;;
30707;SDS011;17458;48.958;8.284;2022-12-16T15:22:23;18.73;;;12.53;;
30707;SDS011;17458;48.958;8.284;2022-12-16T15:25:26;23.63;;;14.07;;
30707;SDS011;17458;48.958;8.284;2022-12-16T15:28:43;19.70;;;12.17;;
30707;SDS011;17458;48.958;8.284;2022-12-16T15:31:50;25.07;;;14.43;;
30707;SDS011;17458;48.958;8.284;2022-12-16T15:34:53;32.70;;;18.07;;
30707;SDS011;17458;48.958;8.284;2022-12-16T15:37:56;27.67;;;16.83;;
30707;SDS011;17458;48.958;8.284;2022-12-16T15:40:59;29.57;;;15.30;;
30707;SDS011;17458;48.958;8.284;2022-12-16T15:44:03;27.70;;;17.13;;
30707;SDS011;17458;48.958;8.284;2022-12-16T15:47:21;27.37;;;15.37;;
30707;SDS011;17458;48.958;8.284;2022-12-16T15:50:34;19.50;;;11.50;;
30707;SDS011;17458;48.958;8.284;2022-12-16T15:53:37;24.93;;;14.10;;
30707;SDS011;17458;48.958;8.284;2022-12-16T15:56:42;19.17;;;13.33;;
30707;SDS011;17458;48.958;8.284;2022-12-16T15:59:53;20.73;;;13.13;;
30707;SDS011;17458;48.958;8.284;2022-12-16T16:02:58;26.47;;;15.57;;
30707;SDS011;17458;48.958;8.284;2022-12-16T16:06:21;24.70;;;14.97;;
30707;SDS011;17458;48.958;8.284;2022-12-16T16:09:28;25.97;;;16.00;;
30707;SDS011;17458;48.958;8.284;2022-12-16T16:12:33;22.03;;;14.57;;
30707;SDS011;17458;48.958;8.284;2022-12-16T16:15:35;27.03;;;17.03;;
30707;SDS011;17458;48.958;8.284;2022-12-16T16:18:39;23.50;;;16.27;;
30707;SDS011;17458;48.958;8.284;2022-12-16T16:21:43;29.53;;;15.57;;
30707;SDS011;17458;48.958;8.284;2022-12-16T16:24:46;28.80;;;16.50;;
30707;SDS011;17458;48.958;8.284;2022-12-16T16:27:48;22.03;;;14.43;;
30707;SDS011;17458;48.958;8.284;2022-12-16T16:30:51;22.60;;;14.63;;
30707;SDS011;17458;48.958;8.284;2022-12-16T16:33:54;25.27;;;16.67;;
30707;SDS011;17458;48.958;8.284;2022-12-16T16:37:00;23.63;;;13.30;;
30707;SDS011;17458;48.958;8.284;2022-12-16T16:40:17;26.73;;;15.63;;
30707;SDS011;17458;48.958;8.284;2022-12-16T16:43:20;22.50;;;12.03;;
30707;SDS011;17458;48.958;8.284;2022-12-16T16:49:45;21.30;;;14.70;;
30707;SDS011;17458;48.958;8.284;2022-12-16T16:52:48;26.67;;;17.53;;
30707;SDS011;17458;48.958;8.284;2022-12-16T16:55:51;20.27;;;14.43;;
30707;SDS011;17458;48.958;8.284;2022-12-16T16:58:54;29.70;;;16.43;;
30707;SDS011;17458;48.958;8.284;2022-12-16T17:01:57;25.20;;;15.33;;
30707;SDS011;17458;48.958;8.284;2022-12-16T17:05:00;26.40;;;16.23;;
30707;SDS011;17458;48.958;8.284;2022-12-16T17:08:03;22.90;;;14.77;;
30707;SDS011;17458;48.958;8.284;2022-12-16T17:11:15;17.80;;;12.53;;
30707;SDS011;17458;48.958;8.284;2022-12-16T17:14:20;30.90;;;17.33;;
30707;SDS011;17458;48.958;8.284;2022-12-16T17:17:23;35.27;;;19.80;;
30707;SDS011;17458;48.958;8.284;2022-12-16T17:20:26;25.50;;;15.47;;
30707;SDS011;17458;48.958;8.284;2022-12-16T17:23:28;27.37;;;16.43;;
30707;SDS011;17458;48.958;8.284;2022-12-16T17:26:32;26.90;;;17.50;;
30707;SDS011;17458;48.958;8.284;2022-12-16T17:29:34;21.07;;;14.60;;
30707;SDS011;17458;48.958;8.284;2022-12-16T17:32:37;23.60;;;14.40;;
30707;SDS011;17458;48.958;8.284;2022-12-16T17:35:40;22.70;;;14.43;;
30707;SDS011;17458;48.958;8.284;2022-12-16T17:38:43;21.03;;;15.63;;
30707;SDS011;17458;48.958;8.284;2022-12-16T17:41:47;28.90;;;16.17;;
30707;SDS011;17458;48.958;8.284;2022-12-16T17:44:49;23.17;;;15.80;;
30707;SDS011;17458;48.958;8.284;2022-12-16T17:47:52;36.30;;;20.30;;
30707;SDS011;17458;48.958;8.284;2022-12-16T17:50:55;26.07;;;17.23;;
30707;SDS011;17458;48.958;8.284;2022-12-16T17:53:58;28.97;;;16.83;;
30707;SDS011;17458;48.958;8.284;2022-12-16T17:57:01;59.83;;;32.50;;
30707;SDS011;17458;48.958;8.284;2022-12-16T18:00:04;27.80;;;15.83;;
30707;SDS011;17458;48.958;8.284;2022-12-16T18:03:07;37.27;;;20.67;;
30707;SDS011;17458;48.958;8.284;2022-12-16T18:06:10;29.97;;;18.67;;
30707;SDS011;17458;48.958;8.284;2022-12-16T18:09:13;26.87;;;17.53;;
30707;SDS011;17458;48.958;8.284;2022-12-16T18:12:16;29.43;;;17.30;;
30707;SDS011;17458;48.958;8.284;2022-12-16T18:15:19;21.43;;;14.67;;
30707;SDS011;17458;48.958;8.284;2022-12-16T18:18:22;24.93;;;15.07;;
30707;SDS011;17458;48.958;8.284;2022-12-16T18:21:24;25.07;;;14.37;;
30707;SDS011;17458;48.958;8.284;2022-12-16T18:24:44;21.93;;;14.90;;
30707;SDS011;17458;48.958;8.284;2022-12-16T18:27:47;30.83;;;14.80;;
30707;SDS011;17458;48.958;8.284;2022-12-16T18:30:49;41.13;;;19.33;;
30707;SDS011;17458;48.958;8.284;2022-12-16T18:33:52;41.83;;;21.17;;
30707;SDS011;17458;48.958;8.284;2022-12-16T18:36:55;60.77;;;23.10;;
30707;SDS011;17458;48.958;8.284;2022-12-16T18:39:58;41.13;;;19.83;;
30707;SDS011;17458;48.958;8.284;2022-12-16T18:43:01;41.43;;;20.43;;
30707;SDS011;17458;48.958;8.284;2022-12-16T18:46:07;44.40;;;22.10;;
30707;SDS011;17458;48.958;8.284;2022-12-16T18:49:10;31.70;;;20.17;;
30707;SDS011;17458;48.958;8.284;2022-12-16T18:52:13;38.13;;;21.30;;
30707;SDS011;17458;48.958;8.284;2022-12-16T18:55:15;35.40;;;22.27;;
30707;SDS011;17458;48.958;8.284;2022-12-16T18:58:18;38.63;;;22.73;;
30707;SDS011;17458;48.958;8.284;2022-12-16T19:01:21;39.03;;;21.67;;
30707;SDS011;17458;48.958;8.284;2022-12-16T19:04:24;44.23;;;20.03;;
30707;SDS011;17458;48.958;8.284;2022-12-16T19:07:27;32.07;;;18.47;;
30707;SDS011;17458;48.958;8.284;2022-12-16T19:10:29;35.47;;;18.83;;
30707;SDS011;17458;48.958;8.284;2022-12-16T19:13:32;40.47;;;21.50;;